Flight Track Log - Related Links

Times and Time Zones

All times are in EDT time to prevent confusion due to time zone crossing. See the CPT7773 flight status page for this flight to view local times or setup timezone preferences in your user account.

Time Position Orientation Groundspeed Altitude Reporting Facility
EDT Latitude Longitude Course Direction KTS MPH feet Rate Location/Type
Thu 20:10:23 44.4011 -108.8150 129° Southeast 126 145 10,400  Level Salt Lake Center
Thu 20:11:25 44.3783 -108.7756 129° Southeast 129 148 11,200 816 Climbing Salt Lake Center
Thu 20:12:28 44.3564 -108.7400 131° Southeast 126 145 12,100 480 Climbing Salt Lake Center
Thu 20:13:30 44.3292 -108.6992 133° Southeast 131 151 12,200 48 Climbing Salt Lake Center
Thu 20:14:32 44.2964 -108.6447 130° Southeast 152 175 12,200  Level Salt Lake Center
Thu 20:15:34 44.2544 -108.5769 131° Southeast 176 203 12,200  Level Salt Lake Center
Thu 20:16:36 44.2211 -108.5222 130° Southeast 184 212 12,200  Level Salt Lake Center
Thu 20:17:38 44.1892 -108.4697 130° Southeast 183 211 12,200  Level Salt Lake Center
Thu 20:18:40 44.1589 -108.4189 130° Southeast 179 206 12,200  Level Salt Lake Center
Thu 20:19:42 44.1297 -108.3697 130° Southeast 173 199 12,200  Level Salt Lake Center
Thu 20:20:44 44.0933 -108.3131 132° Southeast 169 194 12,200  Level Salt Lake Center
Thu 20:21:46 44.0633 -108.2642 130° Southeast 167 192 12,200  Level Salt Lake Center
Thu 20:22:48 44.0339 -108.2150 130° Southeast 166 191 12,200 -145 Level Salt Lake Center
Thu 20:23:50 44.0036 -108.1661 131° Southeast 166 191 11,900 -97 Descending Salt Lake Center
Thu 20:24:52 43.9722 -108.1161 131° Southeast 169 194 12,000  Climbing Salt Lake Center
Thu 20:25:54 43.9406 -108.0667 132° Southeast 170 196 11,900  Descending Salt Lake Center
Thu 20:26:56 43.9036 -108.0075 131° Southeast 170 196 12,000 48 Climbing Salt Lake Center
Thu 20:27:58 43.8717 -107.9567 131° Southeast 172 198 12,000  Level Salt Lake Center
Thu 20:29:00 43.8372 -107.9075 134° Southeast 175 201 12,000  Level Salt Lake Center
Thu 20:30:02 43.8075 -107.8583 130° Southeast 173 199 12,000  Level Salt Lake Center
Thu 20:31:04 43.7822 -107.8125 127° Southeast 163 188 12,000  Level Salt Lake Center
Thu 20:32:06 43.7458 -107.7572 132° Southeast 161 185 12,000 48 Level Salt Lake Center
Thu 20:33:08 43.7122 -107.7089 134° Southeast 166 191 12,100 48 Climbing Salt Lake Center
Thu 20:34:10 43.6803 -107.6572 131° Southeast 171 197 12,100 -48 Level Salt Lake Center
Thu 20:35:13 43.6483 -107.6067 131° Southeast 174 200 12,000 -48 Descending Salt Lake Center
Thu 20:36:15 43.6161 -107.5572 132° Southeast 174 200 12,000  Level Salt Lake Center
Thu 20:37:17 43.5847 -107.5083 132° Southeast 173 199 12,000 -48 Level Salt Lake Center
Thu 20:38:19 43.5467 -107.4497 132° Southeast 171 197 11,900  Descending Salt Lake Center
Thu 20:39:21 43.5153 -107.3986 130° Southeast 173 199 12,000 48 Climbing Salt Lake Center
Thu 20:40:23 43.4842 -107.3497 131° Southeast 172 198 12,000 48 Level Salt Lake Center
Thu 20:41:25 43.4539 -107.3019 131° Southeast 171 197 12,100 97 Climbing Salt Lake Center
Thu 20:42:27 43.4261 -107.2583 131° Southeast 161 185 12,200  Climbing Salt Lake Center
Thu 20:43:29 43.3961 -107.2142 133° Southeast 158 182 12,100 -97 Descending Salt Lake Center
Thu 20:44:31 43.3594 -107.1561 131° Southeast 165 190 12,000 -48 Descending Salt Lake Center
Thu 20:45:33 43.3281 -107.1086 132° Southeast 168 193 12,000  Level Salt Lake Center
Thu 20:46:35 43.2967 -107.0617 133° Southeast 168 193 12,000  Level Salt Lake Center
Thu 20:47:37 43.2656 -107.0142 132° Southeast 167 192 12,000 48 Level Salt Lake Center
Thu 20:48:39 43.2372 -106.9672 130° Southeast 163 188 12,100  Climbing Salt Lake Center
Thu 20:49:41 43.2014 -106.9139 133° Southeast 164 189 12,000 -48 Descending Salt Lake Center
Thu 20:50:43 43.1706 -106.8675 132° Southeast 169 194 12,000 -97 Level Salt Lake Center
Thu 20:51:45 43.1344 -106.8147 133° Southeast 170 196 11,800 -290 Descending Salt Lake Center
Thu 20:52:47 43.1044 -106.7681 131° Southeast 171 197 11,400 -871 Descending Salt Lake Center
Thu 20:53:49 43.0639 -106.7086 133° Southeast 185 213 10,000 -1,258 Descending Salt Lake Center
Thu 20:54:51 43.0306 -106.6536 130° Southeast 191 220 8,800 -1,065 Descending Salt Lake Center
Thu 20:55:53 43.0003 -106.5981 127° Southeast 193 222 7,800 -774 Descending Salt Lake Center
Thu 20:56:55 42.9689 -106.5400 126° Southeast 188 216 7,200 -581 Descending Salt Lake Center

Login

Don't have an account? Register now (free) for customized features, flight alerts, and more!